sensor_id;sensor_type;location;lat;lon;timestamp;pressure;altitude;pressure_sealevel;temperature;humidity
26563;BME280;14217;50.986;5.826;2024-01-07T00:01:23;100963.19;;;17.42;48.42
26563;BME280;14217;50.986;5.826;2024-01-07T00:06:25;100966.69;;;17.43;48.17
26563;BME280;14217;50.986;5.826;2024-01-07T00:11:28;100977.28;;;17.43;48.34
26563;BME280;14217;50.986;5.826;2024-01-07T00:16:30;100972.00;;;17.43;48.24
26563;BME280;14217;50.986;5.826;2024-01-07T00:21:32;100967.72;;;17.39;48.44
26563;BME280;14217;50.986;5.826;2024-01-07T00:26:34;100975.44;;;17.45;48.06
26563;BME280;14217;50.986;5.826;2024-01-07T00:31:35;100983.34;;;17.46;48.18
26563;BME280;14217;50.986;5.826;2024-01-07T00:36:38;100983.34;;;17.46;48.18
26563;BME280;14217;50.986;5.826;2024-01-07T00:41:40;100985.31;;;17.41;48.32
26563;BME280;14217;50.986;5.826;2024-01-07T00:46:42;100980.13;;;17.38;48.50
26563;BME280;14217;50.986;5.826;2024-01-07T00:51:48;100981.72;;;17.42;48.32
26563;BME280;14217;50.986;5.826;2024-01-07T00:56:50;100987.88;;;17.43;48.35
26563;BME280;14217;50.986;5.826;2024-01-07T01:01:52;100990.47;;;17.44;48.48
26563;BME280;14217;50.986;5.826;2024-01-07T01:06:54;100995.97;;;17.40;48.49
26563;BME280;14217;50.986;5.826;2024-01-07T01:11:56;101000.31;;;17.41;48.60
26563;BME280;14217;50.986;5.826;2024-01-07T01:16:58;101002.06;;;17.42;48.30
26563;BME280;14217;50.986;5.826;2024-01-07T01:22:00;101022.31;;;17.43;48.90
26563;BME280;14217;50.986;5.826;2024-01-07T01:27:02;101023.44;;;17.37;49.01
26563;BME280;14217;50.986;5.826;2024-01-07T01:32:04;101020.59;;;17.42;49.32
26563;BME280;14217;50.986;5.826;2024-01-07T01:37:08;101031.16;;;17.43;49.31
26563;BME280;14217;50.986;5.826;2024-01-07T01:42:11;101028.56;;;17.42;49.17
26563;BME280;14217;50.986;5.826;2024-01-07T01:47:13;101037.31;;;17.44;49.15
26563;BME280;14217;50.986;5.826;2024-01-07T01:52:15;101038.38;;;17.38;49.10
26563;BME280;14217;50.986;5.826;2024-01-07T01:57:20;101045.34;;;17.41;49.30
26563;BME280;14217;50.986;5.826;2024-01-07T02:02:24;101058.50;;;17.44;48.91
26563;BME280;14217;50.986;5.826;2024-01-07T02:07:27;101051.63;;;17.38;48.92
26563;BME280;14217;50.986;5.826;2024-01-07T02:12:30;101063.03;;;17.40;48.83
26563;BME280;14217;50.986;5.826;2024-01-07T02:17:32;101055.09;;;17.40;48.87
26563;BME280;14217;50.986;5.826;2024-01-07T02:22:34;101059.56;;;17.38;48.92
26563;BME280;14217;50.986;5.826;2024-01-07T02:27:36;101060.56;;;17.36;48.96
26563;BME280;14217;50.986;5.826;2024-01-07T02:32:38;101066.63;;;17.39;49.06
26563;BME280;14217;50.986;5.826;2024-01-07T02:37:40;101072.88;;;17.37;48.75
26563;BME280;14217;50.986;5.826;2024-01-07T02:42:42;101075.47;;;17.38;48.68
26563;BME280;14217;50.986;5.826;2024-01-07T02:47:44;101082.56;;;17.38;48.68
26563;BME280;14217;50.986;5.826;2024-01-07T02:52:46;101081.75;;;17.36;48.75
26563;BME280;14217;50.986;5.826;2024-01-07T02:57:48;101089.78;;;17.33;48.77
26563;BME280;14217;50.986;5.826;2024-01-07T03:02:50;101087.00;;;17.37;48.57
26563;BME280;14217;50.986;5.826;2024-01-07T03:07:52;101087.13;;;17.33;48.75
26563;BME280;14217;50.986;5.826;2024-01-07T03:12:54;101100.16;;;17.39;48.51
26563;BME280;14217;50.986;5.826;2024-01-07T03:17:57;101088.72;;;17.38;48.77
26563;BME280;14217;50.986;5.826;2024-01-07T03:23:00;101102.94;;;17.36;48.63
26563;BME280;14217;50.986;5.826;2024-01-07T03:28:02;101100.31;;;17.34;48.79
26563;BME280;14217;50.986;5.826;2024-01-07T03:33:04;101098.53;;;17.35;48.63
26563;BME280;14217;50.986;5.826;2024-01-07T03:38:06;101092.44;;;17.33;48.51
26563;BME280;14217;50.986;5.826;2024-01-07T03:43:08;101097.69;;;17.34;48.88
26563;BME280;14217;50.986;5.826;2024-01-07T03:48:10;101097.69;;;17.34;48.51
26563;BME280;14217;50.986;5.826;2024-01-07T03:53:13;101099.47;;;17.34;48.52
26563;BME280;14217;50.986;5.826;2024-01-07T03:58:15;101111.66;;;17.39;48.40
26563;BME280;14217;50.986;5.826;2024-01-07T04:03:17;101110.06;;;17.34;48.61
26563;BME280;14217;50.986;5.826;2024-01-07T04:08:19;101117.06;;;17.35;48.45
26563;BME280;14217;50.986;5.826;2024-01-07T04:13:21;101125.84;;;17.37;48.57
26563;BME280;14217;50.986;5.826;2024-01-07T04:18:23;101125.03;;;17.35;48.40
26563;BME280;14217;50.986;5.826;2024-01-07T04:23:25;101133.75;;;17.38;48.29
26563;BME280;14217;50.986;5.826;2024-01-07T04:28:27;101131.03;;;17.40;48.39
26563;BME280;14217;50.986;5.826;2024-01-07T04:33:29;101142.66;;;17.36;48.31
26563;BME280;14217;50.986;5.826;2024-01-07T04:38:31;101151.50;;;17.35;48.35
26563;BME280;14217;50.986;5.826;2024-01-07T04:43:34;101150.50;;;17.39;48.09
26563;BME280;14217;50.986;5.826;2024-01-07T04:48:37;101155.88;;;17.37;47.95
26563;BME280;14217;50.986;5.826;2024-01-07T04:53:39;101161.16;;;17.37;48.00
26563;BME280;14217;50.986;5.826;2024-01-07T04:58:41;101165.53;;;17.38;47.97
26563;BME280;14217;50.986;5.826;2024-01-07T05:03:43;101167.47;;;17.33;48.10
26563;BME280;14217;50.986;5.826;2024-01-07T05:08:46;101164.84;;;17.33;48.22
26563;BME280;14217;50.986;5.826;2024-01-07T05:13:47;101175.34;;;17.35;48.10
26563;BME280;14217;50.986;5.826;2024-01-07T05:18:50;101164.97;;;17.28;48.03
26563;BME280;14217;50.986;5.826;2024-01-07T05:23:52;101182.59;;;17.30;48.11
26563;BME280;14217;50.986;5.826;2024-01-07T05:28:54;101183.50;;;17.28;48.15
26563;BME280;14217;50.986;5.826;2024-01-07T05:33:56;101191.25;;;17.35;47.92
26563;BME280;14217;50.986;5.826;2024-01-07T05:38:58;101203.78;;;17.30;48.07
26563;BME280;14217;50.986;5.826;2024-01-07T05:44:00;101208.16;;;17.31;47.97
26563;BME280;14217;50.986;5.826;2024-01-07T05:49:02;101208.09;;;17.32;47.80
26563;BME280;14217;50.986;5.826;2024-01-07T05:54:04;101205.50;;;17.31;48.01
26563;BME280;14217;50.986;5.826;2024-01-07T05:59:06;101217.94;;;17.28;48.08
26563;BME280;14217;50.986;5.826;2024-01-07T06:04:08;101225.00;;;17.28;47.82
26563;BME280;14217;50.986;5.826;2024-01-07T06:09:11;101235.38;;;17.36;47.52
26563;BME280;14217;50.986;5.826;2024-01-07T06:14:13;101244.34;;;17.32;47.79
26563;BME280;14217;50.986;5.826;2024-01-07T06:19:18;101251.53;;;17.26;47.67
26563;BME280;14217;50.986;5.826;2024-01-07T06:24:21;101248.91;;;17.26;47.63
26563;BME280;14217;50.986;5.826;2024-01-07T06:29:22;101258.47;;;17.31;47.71
26563;BME280;14217;50.986;5.826;2024-01-07T06:34:25;101255.81;;;17.31;47.51
26563;BME280;14217;50.986;5.826;2024-01-07T06:39:27;101263.88;;;17.27;47.58
26563;BME280;14217;50.986;5.826;2024-01-07T06:44:29;101274.38;;;17.31;47.70
26563;BME280;14217;50.986;5.826;2024-01-07T06:49:31;101278.75;;;17.32;47.73
26563;BME280;14217;50.986;5.826;2024-01-07T06:54:33;101284.03;;;17.33;47.57
26563;BME280;14217;50.986;5.826;2024-01-07T06:59:35;101288.44;;;17.33;47.53
26563;BME280;14217;50.986;5.826;2024-01-07T07:04:37;101292.97;;;17.29;47.65
26563;BME280;14217;50.986;5.826;2024-01-07T07:09:39;101302.84;;;17.24;47.53
26563;BME280;14217;50.986;5.826;2024-01-07T07:14:41;101314.31;;;17.24;47.48
26563;BME280;14217;50.986;5.826;2024-01-07T07:19:43;101321.22;;;17.28;47.60
26563;BME280;14217;50.986;5.826;2024-01-07T07:24:46;101338.03;;;17.27;47.41
26563;BME280;14217;50.986;5.826;2024-01-07T07:29:50;101343.19;;;17.32;47.63
26563;BME280;14217;50.986;5.826;2024-01-07T07:34:52;101350.47;;;17.25;47.46
26563;BME280;14217;50.986;5.826;2024-01-07T07:39:55;101360.03;;;17.30;47.57
26563;BME280;14217;50.986;5.826;2024-01-07T07:44:57;101375.13;;;17.27;47.41
26563;BME280;14217;50.986;5.826;2024-01-07T07:49:59;101383.06;;;17.27;47.29
26563;BME280;14217;50.986;5.826;2024-01-07T07:55:01;101391.13;;;17.24;47.23
26563;BME280;14217;50.986;5.826;2024-01-07T08:00:05;101399.06;;;17.24;47.24
26563;BME280;14217;50.986;5.826;2024-01-07T08:05:07;101401.78;;;17.21;47.47
26563;BME280;14217;50.986;5.826;2024-01-07T08:10:10;101421.13;;;17.25;47.07
26563;BME280;14217;50.986;5.826;2024-01-07T08:15:12;101424.81;;;17.19;47.53
26563;BME280;14217;50.986;5.826;2024-01-07T08:20:14;101431.03;;;17.18;47.07
26563;BME280;14217;50.986;5.826;2024-01-07T08:25:17;101424.63;;;17.25;47.00
26563;BME280;14217;50.986;5.826;2024-01-07T08:30:19;101442.34;;;17.23;46.78
26563;BME280;14217;50.986;5.826;2024-01-07T08:35:21;101448.47;;;17.25;46.99
26563;BME280;14217;50.986;5.826;2024-01-07T08:40:27;101448.63;;;17.19;47.03
26563;BME280;14217;50.986;5.826;2024-01-07T08:45:31;101453.06;;;17.19;46.92
26563;BME280;14217;50.986;5.826;2024-01-07T08:50:33;101454.75;;;17.21;47.00
26563;BME280;14217;50.986;5.826;2024-01-07T08:55:35;101461.88;;;17.19;46.89
26563;BME280;14217;50.986;5.826;2024-01-07T09:00:40;101469.81;;;17.19;46.51
26563;BME280;14217;50.986;5.826;2024-01-07T09:05:42;101464.63;;;17.16;46.86
26563;BME280;14217;50.986;5.826;2024-01-07T09:10:44;101472.59;;;17.15;46.59
26563;BME280;14217;50.986;5.826;2024-01-07T09:15:46;101483.16;;;17.16;46.65
26563;BME280;14217;50.986;5.826;2024-01-07T09:20:48;101485.81;;;17.16;45.36
26563;BME280;14217;50.986;5.826;2024-01-07T09:25:50;101493.13;;;17.06;44.83
26563;BME280;14217;50.986;5.826;2024-01-07T09:30:52;101491.41;;;17.05;44.75
26563;BME280;14217;50.986;5.826;2024-01-07T09:35:54;101504.50;;;17.10;44.53
26563;BME280;14217;50.986;5.826;2024-01-07T09:41:10;101510.63;;;17.12;44.60
26563;BME280;14217;50.986;5.826;2024-01-07T09:46:13;101515.09;;;17.10;44.71
26563;BME280;14217;50.986;5.826;2024-01-07T09:51:17;101516.75;;;17.14;44.56
26563;BME280;14217;50.986;5.826;2024-01-07T09:56:25;101536.19;;;17.13;44.49
26563;BME280;14217;50.986;5.826;2024-01-07T10:01:28;101534.47;;;17.12;44.45
26563;BME280;14217;50.986;5.826;2024-01-07T10:06:31;101538.84;;;17.13;44.01
26563;BME280;14217;50.986;5.826;2024-01-07T10:11:33;101540.63;;;17.13;44.18
26563;BME280;14217;50.986;5.826;2024-01-07T10:16:35;101538.88;;;17.12;44.25
26563;BME280;14217;50.986;5.826;2024-01-07T10:21:37;101546.78;;;17.13;44.32
26563;BME280;14217;50.986;5.826;2024-01-07T10:26:40;101538.84;;;17.13;44.13
26563;BME280;14217;50.986;5.826;2024-01-07T10:31:42;101542.44;;;17.11;44.21
26563;BME280;14217;50.986;5.826;2024-01-07T10:36:45;101550.41;;;17.09;44.38
26563;BME280;14217;50.986;5.826;2024-01-07T10:41:49;101555.72;;;17.09;44.67
26563;BME280;14217;50.986;5.826;2024-01-07T10:46:56;101556.59;;;17.10;44.64
26563;BME280;14217;50.986;5.826;2024-01-07T10:52:08;101557.47;;;17.10;44.43
26563;BME280;14217;50.986;5.826;2024-01-07T11:02:55;101573.44;;;17.07;44.38
26563;BME280;14217;50.986;5.826;2024-01-07T11:13:37;101574.28;;;17.07;44.63
26563;BME280;14217;50.986;5.826;2024-01-07T11:18:46;101561.88;;;17.10;44.78
26563;BME280;14217;50.986;5.826;2024-01-07T11:23:53;101575.19;;;17.08;44.53
26563;BME280;14217;50.986;5.826;2024-01-07T11:28:57;101583.13;;;17.08;44.52
26563;BME280;14217;50.986;5.826;2024-01-07T11:33:59;101580.47;;;17.08;44.87
26563;BME280;14217;50.986;5.826;2024-01-07T11:39:02;101587.66;;;17.03;45.14
26563;BME280;14217;50.986;5.826;2024-01-07T11:44:05;101584.09;;;17.05;44.90
26563;BME280;14217;50.986;5.826;2024-01-07T11:49:08;101578.72;;;17.07;44.76
26563;BME280;14217;50.986;5.826;2024-01-07T11:54:11;101577.13;;;17.01;44.49
26563;BME280;14217;50.986;5.826;2024-01-07T11:59:13;101579.66;;;17.06;44.70
26563;BME280;14217;50.986;5.826;2024-01-07T12:04:15;101587.81;;;16.97;47.45
26563;BME280;14217;50.986;5.826;2024-01-07T12:09:17;101583.59;;;16.90;46.54
26563;BME280;14217;50.986;5.826;2024-01-07T12:14:20;101585.16;;;16.97;45.58
26563;BME280;14217;50.986;5.826;2024-01-07T12:19:22;101590.13;;;17.11;44.71
26563;BME280;14217;50.986;5.826;2024-01-07T12:24:26;101586.66;;;17.07;44.69
26563;BME280;14217;50.986;5.826;2024-01-07T12:29:28;101586.75;;;17.04;44.14
26563;BME280;14217;50.986;5.826;2024-01-07T12:34:30;101594.69;;;17.04;44.46
26563;BME280;14217;50.986;5.826;2024-01-07T12:39:33;101600.06;;;17.01;44.27
26563;BME280;14217;50.986;5.826;2024-01-07T12:44:38;101602.72;;;17.01;44.70
26563;BME280;14217;50.986;5.826;2024-01-07T12:49:40;101609.00;;;16.97;44.47
26563;BME280;14217;50.986;5.826;2024-01-07T12:54:42;101619.69;;;16.92;44.34
26563;BME280;14217;50.986;5.826;2024-01-07T12:59:44;101615.47;;;16.86;44.32
26563;BME280;14217;50.986;5.826;2024-01-07T13:04:46;101618.91;;;16.89;44.06
26563;BME280;14217;50.986;5.826;2024-01-07T13:09:49;101635.63;;;16.91;44.37
26563;BME280;14217;50.986;5.826;2024-01-07T13:14:51;101630.38;;;16.89;44.56
26563;BME280;14217;50.986;5.826;2024-01-07T13:19:53;101644.31;;;16.96;44.36
26563;BME280;14217;50.986;5.826;2024-01-07T13:24:55;101649.69;;;16.93;43.97
26563;BME280;14217;50.986;5.826;2024-01-07T13:29:59;101643.38;;;16.98;43.96
26563;BME280;14217;50.986;5.826;2024-01-07T13:35:01;101653.09;;;16.98;43.72
26563;BME280;14217;50.986;5.826;2024-01-07T13:40:03;101654.81;;;16.99;43.67
26563;BME280;14217;50.986;5.826;2024-01-07T13:45:06;101661.09;;;16.95;43.58
26563;BME280;14217;50.986;5.826;2024-01-07T13:50:08;101656.72;;;16.94;43.51
26563;BME280;14217;50.986;5.826;2024-01-07T13:55:11;101657.59;;;16.94;43.41
26563;BME280;14217;50.986;5.826;2024-01-07T14:00:15;101662.06;;;16.92;43.44
26563;BME280;14217;50.986;5.826;2024-01-07T14:05:20;101669.84;;;16.98;43.32
26563;BME280;14217;50.986;5.826;2024-01-07T14:10:23;101697.34;;;16.93;43.49
26563;BME280;14217;50.986;5.826;2024-01-07T14:15:25;101689.81;;;16.74;43.74
26563;BME280;14217;50.986;5.826;2024-01-07T14:20:27;101688.00;;;16.76;46.83
26563;BME280;14217;50.986;5.826;2024-01-07T14:25:30;101708.88;;;16.90;48.12
26563;BME280;14217;50.986;5.826;2024-01-07T14:30:32;101718.00;;;16.77;47.80
26563;BME280;14217;50.986;5.826;2024-01-07T14:35:34;101721.59;;;16.73;47.44
26563;BME280;14217;50.986;5.826;2024-01-07T14:40:37;101741.13;;;16.67;47.25
26563;BME280;14217;50.986;5.826;2024-01-07T14:45:39;101742.06;;;16.64;46.52
26563;BME280;14217;50.986;5.826;2024-01-07T14:50:41;101749.16;;;16.64;46.31
26563;BME280;14217;50.986;5.826;2024-01-07T14:55:46;101761.44;;;16.66;45.77
26563;BME280;14217;50.986;5.826;2024-01-07T15:00:48;101770.19;;;16.70;45.41
26563;BME280;14217;50.986;5.826;2024-01-07T15:05:50;101774.47;;;16.76;44.97
26563;BME280;14217;50.986;5.826;2024-01-07T15:10:53;101775.50;;;16.69;44.69
26563;BME280;14217;50.986;5.826;2024-01-07T15:15:55;101785.16;;;16.71;44.51
26563;BME280;14217;50.986;5.826;2024-01-07T15:20:57;101791.50;;;16.64;44.52
26563;BME280;14217;50.986;5.826;2024-01-07T15:25:59;101805.53;;;16.67;44.49
26563;BME280;14217;50.986;5.826;2024-01-07T15:31:01;101805.59;;;16.63;44.36
26563;BME280;14217;50.986;5.826;2024-01-07T15:36:05;101818.81;;;16.64;44.31
26563;BME280;14217;50.986;5.826;2024-01-07T15:41:08;101836.41;;;16.67;43.80
26563;BME280;14217;50.986;5.826;2024-01-07T15:46:10;101841.75;;;16.65;43.91
26563;BME280;14217;50.986;5.826;2024-01-07T15:51:13;101846.38;;;16.53;44.13
26563;BME280;14217;50.986;5.826;2024-01-07T15:56:15;101850.69;;;16.58;43.66
26563;BME280;14217;50.986;5.826;2024-01-07T16:01:19;101863.03;;;16.59;43.32
26563;BME280;14217;50.986;5.826;2024-01-07T16:06:21;101869.16;;;16.61;43.18
26563;BME280;14217;50.986;5.826;2024-01-07T16:11:24;101872.28;;;16.83;48.59
26563;BME280;14217;50.986;5.826;2024-01-07T16:16:26;101871.53;;;16.74;46.67
26563;BME280;14217;50.986;5.826;2024-01-07T16:21:28;101883.19;;;16.65;45.73
26563;BME280;14217;50.986;5.826;2024-01-07T16:26:31;101884.13;;;16.62;44.51
26563;BME280;14217;50.986;5.826;2024-01-07T16:31:33;101888.56;;;16.62;43.28
26563;BME280;14217;50.986;5.826;2024-01-07T16:36:36;101904.75;;;16.46;42.50
26563;BME280;14217;50.986;5.826;2024-01-07T16:41:38;101906.47;;;16.48;42.19
26563;BME280;14217;50.986;5.826;2024-01-07T16:46:40;101911.56;;;16.58;41.09
26563;BME280;14217;50.986;5.826;2024-01-07T16:51:42;101914.19;;;16.58;40.47
26563;BME280;14217;50.986;5.826;2024-01-07T16:56:45;101916.88;;;16.57;39.95
26563;BME280;14217;50.986;5.826;2024-01-07T17:01:47;101918.72;;;16.53;39.24
26563;BME280;14217;50.986;5.826;2024-01-07T17:06:49;101919.59;;;16.52;39.03
26563;BME280;14217;50.986;5.826;2024-01-07T17:11:51;101933.66;;;16.56;40.26
26563;BME280;14217;50.986;5.826;2024-01-07T17:16:53;101942.41;;;16.08;42.20
26563;BME280;14217;50.986;5.826;2024-01-07T17:21:56;101937.47;;;16.41;41.07
26563;BME280;14217;50.986;5.826;2024-01-07T17:26:59;101943.84;;;16.76;39.43
26563;BME280;14217;50.986;5.826;2024-01-07T17:32:01;101949.31;;;16.68;37.58
26563;BME280;14217;50.986;5.826;2024-01-07T17:37:03;101956.38;;;16.67;36.87
26563;BME280;14217;50.986;5.826;2024-01-07T17:42:05;101961.78;;;16.61;37.03
26563;BME280;14217;50.986;5.826;2024-01-07T17:47:09;101967.88;;;16.65;36.29
26563;BME280;14217;50.986;5.826;2024-01-07T17:52:11;101982.25;;;16.50;37.13
26563;BME280;14217;50.986;5.826;2024-01-07T17:57:13;101988.50;;;16.46;37.80
26563;BME280;14217;50.986;5.826;2024-01-07T18:02:16;101989.41;;;16.45;38.08
26563;BME280;14217;50.986;5.826;2024-01-07T18:07:18;101994.63;;;16.48;38.24
26563;BME280;14217;50.986;5.826;2024-01-07T18:12:21;101995.53;;;16.49;39.61
26563;BME280;14217;50.986;5.826;2024-01-07T18:17:23;102000.75;;;16.52;39.52
26563;BME280;14217;50.986;5.826;2024-01-07T18:22:26;102003.41;;;16.50;40.07
26563;BME280;14217;50.986;5.826;2024-01-07T18:27:28;102008.06;;;16.37;41.29
26563;BME280;14217;50.986;5.826;2024-01-07T18:32:30;102012.41;;;16.40;41.51
26563;BME280;14217;50.986;5.826;2024-01-07T18:37:34;102007.28;;;16.32;42.10
26563;BME280;14217;50.986;5.826;2024-01-07T18:42:36;102010.75;;;16.34;41.77
26563;BME280;14217;50.986;5.826;2024-01-07T18:47:38;102021.19;;;16.42;41.54
26563;BME280;14217;50.986;5.826;2024-01-07T18:52:41;102020.34;;;16.40;41.45
26563;BME280;14217;50.986;5.826;2024-01-07T18:57:43;102031.88;;;16.36;41.68
26563;BME280;14217;50.986;5.826;2024-01-07T19:02:47;102030.03;;;16.42;41.06
26563;BME280;14217;50.986;5.826;2024-01-07T19:07:49;102037.97;;;16.42;40.89
26563;BME280;14217;50.986;5.826;2024-01-07T19:12:51;102037.91;;;16.45;40.63
26563;BME280;14217;50.986;5.826;2024-01-07T19:17:54;102034.41;;;16.42;40.62
26563;BME280;14217;50.986;5.826;2024-01-07T19:22:57;102046.69;;;16.48;40.45
26563;BME280;14217;50.986;5.826;2024-01-07T19:27:59;102049.34;;;16.46;40.16
26563;BME280;14217;50.986;5.826;2024-01-07T19:33:02;102046.00;;;16.35;40.63
26563;BME280;14217;50.986;5.826;2024-01-07T19:38:05;102059.22;;;16.36;40.48
26563;BME280;14217;50.986;5.826;2024-01-07T19:43:08;102058.31;;;16.36;40.74
26563;BME280;14217;50.986;5.826;2024-01-07T19:48:10;102062.66;;;16.41;40.55
26563;BME280;14217;50.986;5.826;2024-01-07T19:53:13;102060.84;;;16.43;40.82
26563;BME280;14217;50.986;5.826;2024-01-07T19:58:29;102077.59;;;16.45;40.72
26563;BME280;14217;50.986;5.826;2024-01-07T20:03:32;102073.22;;;16.43;40.73
26563;BME280;14217;50.986;5.826;2024-01-07T20:08:34;102068.88;;;16.37;40.86
26563;BME280;14217;50.986;5.826;2024-01-07T20:13:36;102075.19;;;16.29;41.02
26563;BME280;14217;50.986;5.826;2024-01-07T20:18:39;102086.72;;;16.24;40.99
26563;BME280;14217;50.986;5.826;2024-01-07T20:23:42;102090.13;;;16.34;40.99
26563;BME280;14217;50.986;5.826;2024-01-07T20:28:44;102094.47;;;16.38;41.06
26563;BME280;14217;50.986;5.826;2024-01-07T20:33:48;102088.31;;;16.36;41.17
26563;BME280;14217;50.986;5.826;2024-01-07T20:38:53;102094.50;;;16.34;40.81
26563;BME280;14217;50.986;5.826;2024-01-07T20:43:55;102097.41;;;16.17;40.85
26563;BME280;14217;50.986;5.826;2024-01-07T20:48:58;102099.09;;;16.21;40.90
26563;BME280;14217;50.986;5.826;2024-01-07T20:54:00;102100.78;;;16.30;42.37
26563;BME280;14217;50.986;5.826;2024-01-07T20:59:02;102107.91;;;16.23;42.03
26563;BME280;14217;50.986;5.826;2024-01-07T21:04:04;102106.19;;;16.19;41.72
26563;BME280;14217;50.986;5.826;2024-01-07T21:09:08;102102.66;;;16.20;42.05
26563;BME280;14217;50.986;5.826;2024-01-07T21:14:11;102106.00;;;16.34;41.43
26563;BME280;14217;50.986;5.826;2024-01-07T21:19:13;102108.63;;;16.34;43.38
26563;BME280;14217;50.986;5.826;2024-01-07T21:24:16;102112.31;;;16.22;44.11
26563;BME280;14217;50.986;5.826;2024-01-07T21:29:18;102113.09;;;16.29;43.92
26563;BME280;14217;50.986;5.826;2024-01-07T21:34:21;102115.63;;;16.38;45.39
26563;BME280;14217;50.986;5.826;2024-01-07T21:39:23;102113.84;;;16.40;45.53
26563;BME280;14217;50.986;5.826;2024-01-07T21:44:25;102115.72;;;16.32;45.18
26563;BME280;14217;50.986;5.826;2024-01-07T21:49:28;102117.47;;;16.32;44.50
26563;BME280;14217;50.986;5.826;2024-01-07T21:54:30;102119.25;;;16.31;44.13
26563;BME280;14217;50.986;5.826;2024-01-07T21:59:32;102120.91;;;16.38;44.06
26563;BME280;14217;50.986;5.826;2024-01-07T22:04:36;102120.25;;;16.24;44.31
26563;BME280;14217;50.986;5.826;2024-01-07T22:09:38;102132.56;;;16.25;44.11
26563;BME280;14217;50.986;5.826;2024-01-07T22:14:40;102130.81;;;16.24;44.18
26563;BME280;14217;50.986;5.826;2024-01-07T22:19:42;102128.13;;;16.27;43.77
26563;BME280;14217;50.986;5.826;2024-01-07T22:24:44;102135.19;;;16.26;43.51
26563;BME280;14217;50.986;5.826;2024-01-07T22:29:46;102128.97;;;16.29;43.34
26563;BME280;14217;50.986;5.826;2024-01-07T22:34:48;102143.19;;;16.22;43.34
26563;BME280;14217;50.986;5.826;2024-01-07T22:39:50;102144.84;;;16.29;43.38
26563;BME280;14217;50.986;5.826;2024-01-07T22:44:53;102146.72;;;16.21;43.24
26563;BME280;14217;50.986;5.826;2024-01-07T22:49:54;102159.13;;;16.16;43.38
26563;BME280;14217;50.986;5.826;2024-01-07T22:54:56;102152.81;;;16.28;43.12
26563;BME280;14217;50.986;5.826;2024-01-07T22:59:59;102150.13;;;16.29;43.09
26563;BME280;14217;50.986;5.826;2024-01-07T23:05:01;102151.97;;;16.24;42.97
26563;BME280;14217;50.986;5.826;2024-01-07T23:10:03;102149.34;;;16.24;42.87
26563;BME280;14217;50.986;5.826;2024-01-07T23:15:06;102157.25;;;16.24;42.77
26563;BME280;14217;50.986;5.826;2024-01-07T23:20:08;102159.91;;;16.25;42.86
26563;BME280;14217;50.986;5.826;2024-01-07T23:25:11;102159.91;;;16.25;42.67
26563;BME280;14217;50.986;5.826;2024-01-07T23:30:13;102157.28;;;16.21;43.08
26563;BME280;14217;50.986;5.826;2024-01-07T23:35:15;102160.00;;;16.15;43.02
26563;BME280;14217;50.986;5.826;2024-01-07T23:40:17;102170.50;;;16.24;42.99
26563;BME280;14217;50.986;5.826;2024-01-07T23:45:19;102169.63;;;16.23;42.80
26563;BME280;14217;50.986;5.826;2024-01-07T23:50:22;102180.22;;;16.22;43.24
26563;BME280;14217;50.986;5.826;2024-01-07T23:55:24;102180.22;;;16.22;43.00
